Terminal Aerodrome Forecast
Issued by NWS

Home | Current Version | Previous Version | Graphics & Text | Print | Product List | Glossary Off
Versions: 1 2 3 4 5 6 7 8 9 10 11 12 13 14 15 16

000
FTUS43 KDDC 221315 AAA
TAFHYS
TAF AMD
KHYS 221315Z 2213/2312 02014G20KT P6SM SKC
     FM230300 07007KT P6SM SKC=

USA.gov is the U.S. government's official web portal to all federal, state and local government web resources and services.